Time;durP1;ratioP1;P1;durP2;ratioP2;P2;SDS_P1;SDS_P2;PMS_P1;PMS_P2;Temp;Humidity;BMP_temperature;BMP_pressure;BME280_temperature;BME280_humidity;BME280_pressure;Samples;Min_cycle;Max_cycle;Signal;HPM_P1;HPM_P2
2023/03/29 00:01:57;;;;;;;19.13;8.07;;;9.50;99.90;;;;;;5032494;28;20013;-45
2023/03/29 00:04:26;;;;;;;15.35;8.25;;;9.50;99.90;;;;;;5032559;28;20048;-43
2023/03/29 00:06:52;;;;;;;24.85;9.07;;;9.60;99.90;;;;;;5015031;28;20053;-44
2023/03/29 00:09:18;;;;;;;24.38;10.70;;;9.70;99.90;;;;;;5032290;28;20116;-52
2023/03/29 00:11:44;;;;;;;27.50;11.52;;;9.60;99.90;;;;;;5032403;28;20029;-47
2023/03/29 00:14:10;;;;;;;22.73;10.30;;;9.70;99.90;;;;;;5032123;28;20039;-48
2023/03/29 00:16:36;;;;;;;27.38;12.95;;;9.70;99.90;;;;;;5032315;28;20036;-47
2023/03/29 00:19:02;;;;;;;23.65;10.35;;;9.80;99.90;;;;;;5032229;28;20022;-48
2023/03/29 00:21:27;;;;;;;22.65;10.77;;;9.80;99.90;;;;;;5031862;28;20037;-45
2023/03/29 00:23:53;;;;;;;26.42;11.38;;;9.80;99.90;;;;;;5032099;28;20068;-47
2023/03/29 00:26:19;;;;;;;26.58;10.93;;;9.80;99.90;;;;;;5031738;28;20397;-50
2023/03/29 00:28:44;;;;;;;21.08;11.18;;;9.80;99.90;;;;;;5031734;28;20401;-49
2023/03/29 00:31:12;;;;;;;25.10;11.35;;;9.80;99.90;;;;;;5031981;28;20389;-49
2023/03/29 00:33:39;;;;;;;25.27;11.20;;;9.90;99.90;;;;;;5031720;28;20123;-49
2023/03/29 00:36:06;;;;;;;23.95;11.60;;;9.90;99.90;;;;;;5031955;28;20122;-44
2023/03/29 00:38:32;;;;;;;31.27;12.23;;;9.90;99.90;;;;;;5031598;28;20025;-46
2023/03/29 00:40:58;;;;;;;27.20;12.40;;;9.90;99.90;;;;;;5014213;28;20132;-47
2023/03/29 00:43:24;;;;;;;24.38;11.80;;;9.90;99.90;;;;;;5031517;28;20104;-47
2023/03/29 00:45:50;;;;;;;27.67;11.82;;;10.00;99.90;;;;;;5031716;28;20068;-49
2023/03/29 00:48:23;;;;;;;27.30;12.57;;;10.00;99.90;;;;;;5031546;28;20068;-47
2023/03/29 00:51:02;;;;;;;22.42;11.30;;;10.00;99.90;;;;;;5014163;28;20052;-48
2023/03/29 00:53:38;;;;;;;27.75;11.15;;;10.00;99.90;;;;;;5030901;28;20496;-48
2023/03/29 00:56:10;;;;;;;25.02;11.18;;;10.00;99.90;;;;;;5031487;28;20084;-52
2023/03/29 00:58:50;;;;;;;25.33;12.35;;;10.00;99.90;;;;;;5031297;28;20040;-47
2023/03/29 01:01:36;;;;;;;29.23;11.88;;;10.00;99.90;;;;;;5031424;28;20033;-47
2023/03/29 01:04:22;;;;;;;28.25;11.68;;;10.00;99.90;;;;;;5030920;28;20022;-48
2023/03/29 01:07:16;;;;;;;31.00;10.80;;;10.00;99.90;;;;;;5031507;28;20041;-44
2023/03/29 01:09:44;;;;;;;27.55;11.55;;;10.00;99.90;;;;;;5020714;28;20038;-49
2023/03/29 01:12:15;;;;;;;28.50;10.77;;;10.00;99.90;;;;;;5031318;28;20026;-50
2023/03/29 01:14:51;;;;;;;33.10;11.05;;;10.00;99.90;;;;;;5031168;28;20025;-45
2023/03/29 01:17:20;;;;;;;26.92;10.52;;;10.00;99.90;;;;;;5030919;28;20025;-46
2023/03/29 01:19:57;;;;;;;36.17;11.73;;;10.00;99.90;;;;;;5013385;28;20051;-52
2023/03/29 01:22:29;;;;;;;42.67;11.70;;;10.00;99.90;;;;;;5030546;28;20029;-44
2023/03/29 01:25:06;;;;;;;33.53;11.02;;;10.00;99.90;;;;;;5013307;28;20120;-47
2023/03/29 01:27:52;;;;;;;37.03;11.45;;;10.00;99.90;;;;;;5030904;28;20096;-47
2023/03/29 01:30:25;;;;;;;35.95;11.43;;;10.00;99.90;;;;;;5030765;28;20029;-49
2023/03/29 01:33:06;;;;;;;43.72;11.98;;;10.00;99.90;;;;;;5030909;28;20498;-45
2023/03/29 01:36:11;;;;;;;34.08;10.77;;;10.00;99.90;;;;;;5031056;28;20055;-48
2023/03/29 01:38:49;;;;;;;37.60;11.18;;;10.00;99.90;;;;;;5030736;28;20034;-43
2023/03/29 01:41:15;;;;;;;43.97;11.68;;;10.00;99.90;;;;;;5030452;28;20155;-47
2023/03/29 01:43:59;;;;;;;34.47;11.48;;;10.00;99.90;;;;;;5030595;28;20105;-47
2023/03/29 01:46:37;;;;;;;39.05;10.88;;;10.00;99.90;;;;;;5030728;28;20026;-47
2023/03/29 01:49:23;;;;;;;30.77;10.82;;;10.00;99.90;;;;;;5030427;28;20026;-48
2023/03/29 01:51:56;;;;;;;39.67;11.05;;;10.00;99.90;;;;;;5030224;28;20025;-52
2023/03/29 01:54:31;;;;;;;34.15;11.30;;;10.00;99.90;;;;;;5000644;28;20030;-47
2023/03/29 01:56:57;;;;;;;36.85;11.02;;;10.00;99.90;;;;;;5030467;28;20108;-44
2023/03/29 01:59:30;;;;;;;37.47;10.88;;;10.00;99.90;;;;;;5030620;28;20707;-51
2023/03/29 02:02:01;;;;;;;33.92;10.95;;;9.90;99.90;;;;;;5030544;28;20115;-49
2023/03/29 02:04:40;;;;;;;29.60;10.25;;;9.90;99.90;;;;;;5030699;28;20021;-44
2023/03/29 02:07:09;;;;;;;26.63;9.20;;;9.90;99.90;;;;;;5030508;28;20112;-48
2023/03/29 02:09:37;;;;;;;24.58;10.18;;;9.80;99.90;;;;;;5013165;28;20033;-45
2023/03/29 02:12:05;;;;;;;22.95;9.07;;;9.80;99.90;;;;;;5030675;28;20108;-44
2023/03/29 02:14:31;;;;;;;20.20;9.02;;;9.80;99.90;;;;;;5030440;28;20048;-44
2023/03/29 02:17:08;;;;;;;25.13;9.65;;;9.80;99.90;;;;;;5031918;28;20093;-44
2023/03/29 02:19:33;;;;;;;20.25;8.35;;;9.80;99.90;;;;;;5034034;28;20393;-44
2023/03/29 02:22:09;;;;;;;21.85;7.78;;;9.80;99.90;;;;;;5033926;28;20018;-44
2023/03/29 02:24:36;;;;;;;15.00;6.93;;;9.80;99.90;;;;;;5034160;28;20065;-44
2023/03/29 02:27:02;;;;;;;19.02;8.50;;;9.70;99.90;;;;;;5032749;28;20432;-46
2023/03/29 02:29:28;;;;;;;19.92;8.02;;;9.70;99.90;;;;;;5034182;28;20253;-43
2023/03/29 02:32:11;;;;;;;21.92;7.88;;;9.70;99.90;;;;;;5034215;28;20421;-51
2023/03/29 02:34:58;;;;;;;19.20;7.57;;;9.70;99.90;;;;;;5033944;28;20464;-46
2023/03/29 02:37:28;;;;;;;16.30;7.63;;;9.70;99.90;;;;;;5033983;28;20026;-45
2023/03/29 02:39:55;;;;;;;22.52;9.30;;;9.70;99.90;;;;;;5033904;28;20041;-44
2023/03/29 02:42:22;;;;;;;19.75;9.15;;;9.70;99.90;;;;;;5016061;28;20032;-47
2023/03/29 02:44:51;;;;;;;18.80;8.43;;;9.60;99.90;;;;;;5034096;28;20402;-49
2023/03/29 02:47:27;;;;;;;20.92;8.35;;;9.70;99.90;;;;;;5033606;28;20071;-46
2023/03/29 02:49:53;;;;;;;20.35;8.27;;;9.60;99.90;;;;;;5033784;28;20025;-48
2023/03/29 02:52:24;;;;;;;20.27;8.90;;;9.70;99.90;;;;;;5033359;28;20402;-46
2023/03/29 02:54:53;;;;;;;17.90;8.85;;;9.70;99.90;;;;;;5033930;28;20033;-50
2023/03/29 02:57:25;;;;;;;18.42;8.88;;;9.70;99.90;;;;;;5033393;28;20067;-49
2023/03/29 02:59:55;;;;;;;22.40;8.73;;;9.60;99.90;;;;;;5033485;28;20087;-44
2023/03/29 03:02:24;;;;;;;21.75;8.70;;;9.60;99.90;;;;;;5033613;28;20052;-55
2023/03/29 03:04:50;;;;;;;26.57;10.10;;;9.60;99.90;;;;;;5033755;28;20021;-49
2023/03/29 03:07:16;;;;;;;27.58;9.25;;;9.70;99.90;;;;;;5033447;28;20269;-49
2023/03/29 03:09:42;;;;;;;26.33;8.38;;;9.70;99.90;;;;;;5033552;28;20029;-44
2023/03/29 03:12:08;;;;;;;21.50;8.93;;;9.60;99.90;;;;;;5033380;28;20026;-55
2023/03/29 03:14:33;;;;;;;21.58;7.90;;;9.70;99.90;;;;;;5033457;28;20360;-47
2023/03/29 03:16:59;;;;;;;17.45;7.65;;;9.60;99.90;;;;;;5033193;28;20029;-44
2023/03/29 03:19:25;;;;;;;20.05;8.07;;;9.60;99.90;;;;;;5033323;28;20041;-43
2023/03/29 03:21:51;;;;;;;19.98;8.02;;;9.60;99.90;;;;;;5033039;28;20025;-45
2023/03/29 03:24:17;;;;;;;19.45;9.05;;;9.60;99.90;;;;;;5032879;28;20071;-51
2023/03/29 03:26:45;;;;;;;23.27;9.05;;;9.60;99.90;;;;;;5033060;28;20029;-50
2023/03/29 03:29:11;;;;;;;20.60;8.55;;;9.60;99.90;;;;;;5031456;28;20039;-53
2023/03/29 03:31:40;;;;;;;22.05;7.63;;;9.60;99.90;;;;;;5033186;28;20145;-44
2023/03/29 03:34:08;;;;;;;18.15;7.82;;;9.60;99.90;;;;;;5032906;28;20048;-53
2023/03/29 03:36:34;;;;;;;18.43;7.63;;;9.60;99.90;;;;;;5032846;28;20493;-44
2023/03/29 03:39:01;;;;;;;20.98;8.35;;;9.60;99.90;;;;;;5033028;28;20017;-45
2023/03/29 03:41:27;;;;;;;20.80;8.13;;;9.60;99.90;;;;;;5031032;28;20045;-47
2023/03/29 03:43:53;;;;;;;22.48;8.10;;;9.60;99.90;;;;;;5012050;28;20063;-52
2023/03/29 03:46:19;;;;;;;19.25;7.35;;;9.60;99.90;;;;;;5031221;28;20018;-49
2023/03/29 03:48:45;;;;;;;20.23;8.25;;;9.60;99.90;;;;;;5014794;28;20040;-44
2023/03/29 03:51:11;;;;;;;33.92;8.05;;;9.60;99.90;;;;;;5024621;28;20099;-43
2023/03/29 03:53:37;;;;;;;36.30;7.07;;;9.60;99.90;;;;;;5032460;28;20021;-44
2023/03/29 03:56:07;;;;;;;18.85;7.00;;;9.60;99.90;;;;;;5032587;28;20437;-46
2023/03/29 03:58:36;;;;;;;24.30;6.78;;;9.50;99.90;;;;;;5032149;28;20052;-48
2023/03/29 04:01:03;;;;;;;27.10;6.63;;;9.40;99.90;;;;;;5032271;28;20025;-45
2023/03/29 04:03:30;;;;;;;35.53;6.63;;;9.40;99.90;;;;;;5032189;28;20037;-47
2023/03/29 04:05:59;;;;;;;17.08;5.28;;;9.40;99.90;;;;;;5032081;28;20017;-46
2023/03/29 04:08:26;;;;;;;13.35;5.25;;;9.30;99.90;;;;;;5026172;28;20037;-48
2023/03/29 04:10:52;;;;;;;14.27;4.90;;;9.30;99.90;;;;;;5029839;28;20108;-44
2023/03/29 04:13:18;;;;;;;17.23;5.38;;;9.30;99.90;;;;;;5031719;28;20063;-47
2023/03/29 04:15:44;;;;;;;18.48;4.95;;;9.20;99.90;;;;;;5032050;28;20053;-50
2023/03/29 04:18:11;;;;;;;15.40;5.75;;;9.20;99.90;;;;;;5031989;28;20021;-55
2023/03/29 04:20:37;;;;;;;19.15;4.85;;;9.20;99.90;;;;;;5032013;28;20025;-44
2023/03/29 04:23:02;;;;;;;16.83;5.10;;;9.20;99.90;;;;;;5031694;28;20064;-44
2023/03/29 04:25:29;;;;;;;23.15;6.00;;;9.10;99.90;;;;;;5031904;28;20083;-43
2023/03/29 04:27:55;;;;;;;13.10;5.65;;;9.20;99.90;;;;;;5031556;28;20052;-46
2023/03/29 04:30:21;;;;;;;13.20;4.72;;;9.20;99.90;;;;;;5031991;28;20036;-48
2023/03/29 04:32:46;;;;;;;14.10;5.53;;;9.10;99.90;;;;;;5031627;28;20029;-45
2023/03/29 04:35:12;;;;;;;17.23;5.28;;;9.20;99.90;;;;;;5031651;28;20071;-48
2023/03/29 04:37:39;;;;;;;15.60;5.07;;;9.10;99.90;;;;;;5031798;28;20036;-48
2023/03/29 04:40:12;;;;;;;13.32;5.35;;;9.10;99.90;;;;;;5031015;28;20033;-45
2023/03/29 04:42:41;;;;;;;16.52;4.95;;;9.20;99.90;;;;;;5031827;28;20026;-45
2023/03/29 04:45:07;;;;;;;16.55;5.85;;;9.20;99.90;;;;;;5013765;28;20021;-44
2023/03/29 04:47:35;;;;;;;12.15;4.97;;;9.20;99.90;;;;;;5031541;28;20087;-48
2023/03/29 04:50:01;;;;;;;15.85;5.30;;;9.20;99.90;;;;;;5031618;28;20039;-47
2023/03/29 04:52:26;;;;;;;17.35;5.97;;;9.20;99.90;;;;;;5031504;28;20021;-43
2023/03/29 04:54:52;;;;;;;16.15;5.88;;;9.20;99.90;;;;;;5031476;28;20079;-45
2023/03/29 04:57:18;;;;;;;19.63;5.93;;;9.20;99.90;;;;;;5013527;28;20025;-45
2023/03/29 04:59:43;;;;;;;17.23;5.53;;;9.20;99.90;;;;;;5031139;28;20113;-47
2023/03/29 05:02:09;;;;;;;26.42;5.93;;;9.20;99.90;;;;;;5031364;28;20069;-47
2023/03/29 05:04:35;;;;;;;22.65;6.35;;;9.20;99.90;;;;;;5031380;28;20063;-45
2023/03/29 05:07:01;;;;;;;17.15;5.85;;;9.20;99.90;;;;;;5031278;28;20112;-51
2023/03/29 05:09:27;;;;;;;22.83;6.07;;;9.20;99.90;;;;;;5017405;28;20033;-45
2023/03/29 05:11:53;;;;;;;21.25;6.22;;;9.20;99.90;;;;;;5031186;28;20029;-52
2023/03/29 05:14:19;;;;;;;15.63;5.43;;;9.20;99.90;;;;;;5031035;28;20025;-47
2023/03/29 05:16:45;;;;;;;25.88;5.25;;;9.20;99.90;;;;;;5031075;28;20021;-45
2023/03/29 05:19:11;;;;;;;21.52;6.00;;;9.20;99.90;;;;;;5030986;28;20021;-54
2023/03/29 05:21:37;;;;;;;34.50;5.97;;;9.20;99.90;;;;;;5013243;28;20490;-51
2023/03/29 05:24:03;;;;;;;46.95;7.00;;;9.20;99.90;;;;;;5030521;28;20036;-49
2023/03/29 05:26:29;;;;;;;39.38;7.53;;;9.20;99.90;;;;;;5013014;28;20025;-48
2023/03/29 05:28:55;;;;;;;23.05;5.60;;;9.20;99.90;;;;;;5030477;28;20034;-51
2023/03/29 05:31:22;;;;;;;25.30;5.25;;;9.30;99.90;;;;;;5030786;28;20418;-45
2023/03/29 05:33:48;;;;;;;36.13;4.55;;;9.20;99.90;;;;;;5030697;28;20486;-54
2023/03/29 05:36:16;;;;;;;20.00;5.32;;;9.20;99.90;;;;;;5030843;28;20056;-56
2023/03/29 05:38:43;;;;;;;23.08;4.60;;;9.20;99.90;;;;;;5030632;28;20071;-52
2023/03/29 05:41:09;;;;;;;29.75;5.40;;;9.20;99.90;;;;;;5030499;28;20049;-43
2023/03/29 05:43:35;;;;;;;20.02;4.90;;;9.20;99.90;;;;;;5030735;28;20025;-44
2023/03/29 05:46:01;;;;;;;17.38;4.13;;;9.20;99.90;;;;;;5030810;28;20447;-43
2023/03/29 05:48:27;;;;;;;14.00;4.82;;;9.20;99.90;;;;;;5030358;28;20025;-44
2023/03/29 05:50:55;;;;;;;30.70;5.13;;;9.20;99.90;;;;;;5029968;28;20044;-44
2023/03/29 05:53:22;;;;;;;27.40;5.70;;;9.20;99.90;;;;;;5030320;28;20029;-44
2023/03/29 05:55:49;;;;;;;32.20;6.03;;;9.20;99.90;;;;;;5030423;28;20060;-45
2023/03/29 05:58:19;;;;;;;16.90;5.38;;;9.20;99.90;;;;;;5030007;28;20365;-43
2023/03/29 06:00:45;;;;;;;24.10;4.68;;;9.30;99.90;;;;;;5030401;28;20083;-47
2023/03/29 06:03:18;;;;;;;23.27;5.40;;;9.30;99.90;;;;;;5030343;28;20028;-47
2023/03/29 06:05:48;;;;;;;19.27;5.43;;;9.30;99.90;;;;;;5030298;28;20030;-45
2023/03/29 06:08:15;;;;;;;27.88;5.28;;;9.30;99.90;;;;;;5030468;28;20112;-45
2023/03/29 06:10:41;;;;;;;20.27;5.55;;;9.40;99.90;;;;;;5030232;28;20057;-48
2023/03/29 06:13:07;;;;;;;14.43;4.82;;;9.40;99.90;;;;;;5030408;28;20390;-44
2023/03/29 06:15:33;;;;;;;15.98;4.90;;;9.40;99.90;;;;;;5030282;28;20100;-50
2023/03/29 06:18:01;;;;;;;13.23;5.07;;;9.40;99.90;;;;;;5030307;28;20017;-48
2023/03/29 06:20:27;;;;;;;15.32;4.20;;;9.50;99.90;;;;;;5030558;28;20040;-52
2023/03/29 06:22:52;;;;;;;13.13;4.47;;;9.50;99.90;;;;;;5029789;28;20494;-46
2023/03/29 06:25:18;;;;;;;12.27;4.53;;;9.50;99.90;;;;;;5030297;28;20053;-49
2023/03/29 06:27:47;;;;;;;9.82;4.22;;;9.50;99.90;;;;;;5029971;28;20034;-49
2023/03/29 06:30:14;;;;;;;12.32;4.68;;;9.60;99.90;;;;;;5030019;28;20140;-47
2023/03/29 06:32:41;;;;;;;15.68;4.43;;;9.50;99.90;;;;;;5012550;28;20037;-49
2023/03/29 06:35:08;;;;;;;11.18;3.72;;;9.60;99.90;;;;;;5029696;28;20109;-48
2023/03/29 06:37:34;;;;;;;11.05;3.20;;;9.50;99.90;;;;;;5029919;28;20037;-44
2023/03/29 06:39:59;;;;;;;13.60;3.72;;;9.60;99.90;;;;;;5029849;28;20409;-48
2023/03/29 06:42:25;;;;;;;13.48;3.72;;;9.50;99.90;;;;;;5028138;28;20032;-48
2023/03/29 06:44:52;;;;;;;23.58;4.05;;;9.60;99.90;;;;;;5028774;28;20469;-55
2023/03/29 06:47:18;;;;;;;13.82;3.50;;;9.50;99.90;;;;;;5028999;28;20017;-51
2023/03/29 06:49:44;;;;;;;13.30;4.30;;;9.60;99.90;;;;;;5024648;28;20054;-49
2023/03/29 06:52:10;;;;;;;17.17;3.17;;;9.50;99.90;;;;;;5027944;28;20017;-47
2023/03/29 06:54:36;;;;;;;14.10;3.33;;;9.50;99.90;;;;;;5029916;28;20095;-46
2023/03/29 06:57:03;;;;;;;25.55;3.47;;;9.50;99.90;;;;;;5029631;28;20501;-47
2023/03/29 06:59:29;;;;;;;23.25;4.50;;;9.50;99.90;;;;;;5029788;28;20539;-42
2023/03/29 07:01:55;;;;;;;13.20;3.80;;;9.50;99.90;;;;;;5029510;28;20092;-51
2023/03/29 07:04:23;;;;;;;18.15;3.92;;;9.60;99.90;;;;;;5031490;28;20486;-49
2023/03/29 07:07:00;;;;;;;22.15;4.20;;;9.50;99.90;;;;;;5029554;28;20029;-52
2023/03/29 07:09:29;;;;;;;24.63;4.65;;;9.50;99.90;;;;;;5032591;28;20092;-50
2023/03/29 07:11:59;;;;;;;17.35;4.35;;;9.60;99.90;;;;;;5026095;28;20022;-51
2023/03/29 07:14:27;;;;;;;27.02;4.75;;;9.60;99.90;;;;;;5033100;28;20033;-43
2023/03/29 07:17:00;;;;;;;18.25;4.47;;;9.60;99.90;;;;;;5016135;28;20151;-54
2023/03/29 07:19:28;;;;;;;14.38;4.28;;;9.60;99.90;;;;;;5033008;28;20021;-42
2023/03/29 07:21:55;;;;;;;18.65;5.13;;;9.60;99.90;;;;;;5033001;28;20022;-44
2023/03/29 07:24:21;;;;;;;20.95;5.50;;;9.60;99.90;;;;;;5032995;28;20022;-45
2023/03/29 07:26:51;;;;;;;14.82;5.53;;;9.60;99.90;;;;;;5032932;28;20101;-50
2023/03/29 07:29:16;;;;;;;25.00;5.00;;;9.60;99.90;;;;;;5032610;28;20041;-48
2023/03/29 07:31:43;;;;;;;43.60;5.47;;;9.60;99.90;;;;;;5032584;28;20033;-43
2023/03/29 07:34:09;;;;;;;29.35;5.57;;;9.60;99.90;;;;;;5029721;28;20462;-46
2023/03/29 07:36:39;;;;;;;28.60;5.55;;;9.70;99.90;;;;;;5032573;28;20029;-47
2023/03/29 07:39:06;;;;;;;25.52;5.88;;;9.70;99.90;;;;;;5032585;28;20026;-42
2023/03/29 07:41:31;;;;;;;36.22;6.25;;;9.80;99.90;;;;;;5032089;28;20494;-47
2023/03/29 07:44:00;;;;;;;17.30;5.20;;;10.00;99.90;;;;;;5002859;28;20082;-47
2023/03/29 07:46:28;;;;;;;26.02;5.95;;;10.10;99.90;;;;;;5032656;28;20115;-47
2023/03/29 07:48:55;;;;;;;18.73;5.80;;;10.20;99.90;;;;;;5032076;28;20418;-43
2023/03/29 07:51:21;;;;;;;23.95;5.65;;;10.30;99.90;;;;;;5032585;28;20389;-49
2023/03/29 07:53:47;;;;;;;30.10;5.63;;;10.30;99.90;;;;;;5014618;28;20024;-49
2023/03/29 07:56:13;;;;;;;18.45;5.25;;;10.40;99.90;;;;;;5032330;28;20481;-45
2023/03/29 07:58:39;;;;;;;23.52;5.60;;;10.60;99.90;;;;;;5014653;28;20091;-48
2023/03/29 08:01:06;;;;;;;15.23;4.75;;;10.60;99.90;;;;;;5032661;28;20063;-47
2023/03/29 08:03:32;;;;;;;15.32;4.95;;;10.70;99.90;;;;;;5032285;28;20108;-45
2023/03/29 08:06:01;;;;;;;12.82;4.60;;;10.70;99.90;;;;;;5031753;28;20101;-49
2023/03/29 08:08:27;;;;;;;;;;;10.80;99.90;;;;;;5032289;28;20034;-44
2023/03/29 08:10:53;;;;;;;10.55;4.03;;;10.90;99.90;;;;;;5032359;28;20745;-46
2023/03/29 08:13:19;;;;;;;11.75;3.97;;;11.00;99.90;;;;;;5032529;28;20013;-45
2023/03/29 08:15:47;;;;;;;13.13;4.40;;;11.00;99.90;;;;;;5031142;28;20512;-49
2023/03/29 08:18:13;;;;;;;10.93;4.65;;;11.00;99.90;;;;;;5032233;28;20482;-49
2023/03/29 08:20:39;;;;;;;9.20;4.55;;;11.00;99.90;;;;;;5031765;28;20167;-44
2023/03/29 08:23:05;;;;;;;11.90;5.18;;;11.00;99.90;;;;;;5032100;28;20093;-54
2023/03/29 08:25:30;;;;;;;9.65;4.28;;;10.90;99.90;;;;;;5032242;28;20029;-47
2023/03/29 08:27:56;;;;;;;11.05;5.00;;;10.90;99.90;;;;;;5026709;28;20393;-48
2023/03/29 08:30:22;;;;;;;9.55;4.25;;;10.90;99.90;;;;;;5019509;28;20040;-53
2023/03/29 08:32:48;;;;;;;9.43;4.43;;;10.90;99.90;;;;;;5031772;28;20040;-43
2023/03/29 08:35:14;;;;;;;9.30;4.57;;;10.90;99.90;;;;;;5031638;28;20028;-46
2023/03/29 08:37:40;;;;;;;8.52;3.60;;;10.90;99.90;;;;;;5031791;28;20033;-49
2023/03/29 08:40:06;;;;;;;8.38;3.85;;;10.90;99.90;;;;;;5031585;28;20033;-48
2023/03/29 08:42:32;;;;;;;6.78;3.83;;;11.00;99.90;;;;;;5031831;28;20120;-45
2023/03/29 08:45:17;;;;;;;6.55;3.70;;;11.00;99.90;;;;;;5031693;28;20541;-44
2023/03/29 08:48:27;;;;;;;7.10;3.80;;;11.10;99.90;;;;;;5031474;28;20104;-43
2023/03/29 08:50:57;;;;;;;6.22;3.35;;;11.20;99.90;;;;;;4922135;29;20035;-43
2023/03/29 08:53:34;;;;;;;6.68;3.53;;;11.20;99.90;;;;;;5009717;28;20547;-46
2023/03/29 08:56:13;;;;;;;7.57;3.90;;;11.30;99.90;;;;;;5029259;28;20020;-49
2023/03/29 08:58:40;;;;;;;7.25;3.95;;;11.30;99.90;;;;;;5029352;28;20065;-44
2023/03/29 09:01:08;;;;;;;11.65;4.78;;;11.30;99.90;;;;;;5031395;28;20028;-46
2023/03/29 09:03:36;;;;;;;9.05;4.75;;;11.30;99.90;;;;;;5028249;28;20160;-44
2023/03/29 09:06:05;;;;;;;14.05;5.82;;;11.30;99.90;;;;;;5030657;28;20483;-44
2023/03/29 09:08:35;;;;;;;14.38;6.43;;;11.30;99.90;;;;;;5031066;28;20087;-46
2023/03/29 09:11:15;;;;;;;13.85;6.95;;;11.30;99.90;;;;;;5031058;28;20018;-44
2023/03/29 09:13:53;;;;;;;20.25;8.02;;;11.40;99.90;;;;;;5004202;28;20022;-47
2023/03/29 09:16:18;;;;;;;20.67;8.98;;;11.40;99.90;;;;;;5027896;28;20482;-44
2023/03/29 09:18:55;;;;;;;18.40;10.40;;;11.40;99.90;;;;;;5031089;28;20028;-43
2023/03/29 09:22:08;;;;;;;26.00;10.65;;;11.30;99.90;;;;;;5030976;28;20022;-43
2023/03/29 09:24:41;;;;;;;15.15;9.23;;;11.30;99.90;;;;;;5030584;28;20028;-43
2023/03/29 09:27:25;;;;;;;18.15;9.43;;;11.30;99.90;;;;;;5030605;28;20018;-44
2023/03/29 09:30:24;;;;;;;23.33;10.32;;;11.30;99.90;;;;;;5030602;28;20118;-44
2023/03/29 09:32:59;;;;;;;;;;;11.40;99.90;;;;;;5028688;28;20037;-44
2023/03/29 09:35:35;;;;;;;29.70;10.13;;;11.50;99.90;;;;;;5030734;28;19909;-47
2023/03/29 09:38:03;;;;;;;31.33;9.98;;;11.50;99.90;;;;;;5028835;28;20041;-49
2023/03/29 09:40:36;;;;;;;36.33;9.50;;;11.50;99.90;;;;;;5028638;28;20046;-44
2023/03/29 09:43:06;;;;;;;22.70;8.45;;;11.50;99.90;;;;;;5030450;28;20017;-47
2023/03/29 09:45:34;;;;;;;28.85;9.70;;;11.50;99.90;;;;;;5030649;28;20519;-45
2023/03/29 09:48:09;;;;;;;18.42;8.77;;;11.50;99.90;;;;;;5029660;28;20018;-47
2023/03/29 09:50:44;;;;;;;20.40;8.48;;;11.50;99.90;;;;;;5030510;28;20029;-44
2023/03/29 09:53:10;;;;;;;27.38;9.10;;;11.60;99.90;;;;;;5030525;28;20020;-42
2023/03/29 09:55:38;;;;;;;34.65;9.10;;;11.60;99.90;;;;;;5030428;28;20034;-53
2023/03/29 09:58:22;;;;;;;38.22;10.05;;;11.70;99.90;;;;;;5030422;28;20383;-50
2023/03/29 10:00:48;;;;;;;32.90;8.85;;;11.70;99.90;;;;;;5030403;28;20018;-43
2023/03/29 10:03:26;;;;;;;33.13;8.00;;;11.80;99.90;;;;;;5030045;28;20030;-45
2023/03/29 10:05:54;;;;;;;29.00;8.32;;;11.70;99.90;;;;;;5020693;28;20041;-46
2023/03/29 10:08:27;;;;;;;41.40;8.32;;;11.70;99.90;;;;;;5029897;28;20053;-45
2023/03/29 10:10:53;;;;;;;23.58;8.38;;;11.80;99.90;;;;;;5030408;28;20041;-46
2023/03/29 10:13:43;;;;;;;31.88;7.85;;;11.80;99.90;;;;;;5030354;28;20018;-44
2023/03/29 10:16:19;;;;;;;27.52;7.60;;;11.80;99.90;;;;;;5012573;28;20069;-53
2023/03/29 10:18:46;;;;;;;29.90;7.20;;;11.90;99.90;;;;;;5013079;28;20021;-45
2023/03/29 10:21:19;;;;;;;29.98;7.88;;;11.90;99.90;;;;;;5030400;28;20072;-44
2023/03/29 10:23:46;;;;;;;32.53;7.80;;;12.00;99.90;;;;;;5030163;28;20462;-54
2023/03/29 10:26:44;;;;;;;25.13;7.32;;;12.00;99.90;;;;;;5030201;28;20033;-45
2023/03/29 10:29:12;;;;;;;27.15;8.07;;;12.10;99.90;;;;;;4997031;28;20041;-47
2023/03/29 10:31:40;;;;;;;23.73;6.95;;;12.10;99.90;;;;;;5012406;28;20494;-44
2023/03/29 10:34:07;;;;;;;26.65;6.85;;;12.10;99.90;;;;;;5019461;28;20391;-46
2023/03/29 10:36:33;;;;;;;26.38;7.07;;;12.20;99.90;;;;;;5027940;28;20021;-46
2023/03/29 10:39:02;;;;;;;25.58;7.30;;;12.20;99.90;;;;;;5031863;28;20146;-49
2023/03/29 10:41:32;;;;;;;22.33;6.47;;;12.30;99.90;;;;;;5033656;28;20041;-48
2023/03/29 10:43:59;;;;;;;21.67;6.18;;;12.30;99.90;;;;;;5031518;28;20501;-46
2023/03/29 10:46:25;;;;;;;20.30;6.43;;;12.30;99.90;;;;;;5033601;28;20079;-47
2023/03/29 10:49:16;;;;;;;24.27;6.97;;;12.30;99.90;;;;;;5031104;28;20116;-55
2023/03/29 10:51:45;;;;;;;22.10;6.15;;;12.30;99.90;;;;;;5022619;28;20041;-49
2023/03/29 10:54:14;;;;;;;22.08;6.50;;;12.30;99.90;;;;;;5013370;28;20116;-45
2023/03/29 10:56:47;;;;;;;19.80;6.63;;;12.40;99.90;;;;;;5033004;28;20036;-45
2023/03/29 10:59:16;;;;;;;19.17;5.72;;;12.50;99.90;;;;;;5033297;28;20033;-48
2023/03/29 11:02:03;;;;;;;16.70;5.78;;;12.60;99.90;;;;;;5033084;28;20025;-44
2023/03/29 11:04:55;;;;;;;18.98;5.70;;;12.70;99.90;;;;;;5025831;28;20030;-45
2023/03/29 11:07:26;;;;;;;23.20;5.40;;;12.80;99.90;;;;;;5029924;28;20103;-43
2023/03/29 11:09:57;;;;;;;15.77;5.50;;;12.90;99.90;;;;;;5033299;28;20562;-44
2023/03/29 11:12:51;;;;;;;18.38;5.85;;;12.90;99.90;;;;;;5033052;28;20025;-47
2023/03/29 11:15:35;;;;;;;19.27;5.35;;;12.80;99.90;;;;;;5033178;28;20038;-45
2023/03/29 11:18:35;;;;;;;16.92;5.95;;;12.80;99.90;;;;;;5032914;28;20486;-48
2023/03/29 11:21:24;;;;;;;11.85;5.40;;;12.70;99.90;;;;;;5029643;28;20108;-46
2023/03/29 11:23:53;;;;;;;21.33;6.03;;;12.70;99.90;;;;;;5033174;28;20021;-43
2023/03/29 11:26:25;;;;;;;20.73;5.47;;;12.70;99.90;;;;;;5033056;28;20040;-42
2023/03/29 11:28:59;;;;;;;22.63;5.93;;;12.70;99.90;;;;;;5032972;28;20045;-47
2023/03/29 11:31:56;;;;;;;17.98;5.55;;;12.70;99.90;;;;;;5032932;28;20025;-47
2023/03/29 11:35:02;;;;;;;14.85;5.15;;;12.60;99.90;;;;;;5033141;28;20041;-43
2023/03/29 11:38:16;;;;;;;19.42;6.50;;;12.70;99.90;;;;;;4933453;29;20027;-44
2023/03/29 11:40:57;;;;;;;16.38;5.40;;;12.80;99.90;;;;;;5015402;28;20046;-45
2023/03/29 11:43:34;;;;;;;22.90;5.15;;;12.90;99.90;;;;;;5032940;28;20041;-44
2023/03/29 11:46:11;;;;;;;19.38;5.55;;;12.90;99.90;;;;;;5032962;28;20109;-42
2023/03/29 11:48:45;;;;;;;20.10;5.47;;;13.00;99.90;;;;;;5028843;28;20052;-44
2023/03/29 11:51:22;;;;;;;13.27;4.93;;;13.10;99.90;;;;;;5032278;28;20018;-48
2023/03/29 11:54:09;;;;;;;19.83;6.13;;;13.20;99.90;;;;;;5014912;28;20034;-46
2023/03/29 11:56:51;;;;;;;14.10;5.63;;;13.20;99.90;;;;;;5032877;28;20108;-44
2023/03/29 11:59:28;;;;;;;14.77;6.35;;;13.40;99.90;;;;;;5032774;28;20100;-43
2023/03/29 12:02:28;;;;;;;21.80;6.68;;;13.50;99.90;;;;;;5014671;28;20104;-44
2023/03/29 12:04:56;;;;;;;16.30;5.45;;;13.60;99.90;;;;;;5005832;28;20037;-46
2023/03/29 12:07:29;;;;;;;16.92;5.70;;;13.80;99.90;;;;;;5031867;28;20107;-49
2023/03/29 12:10:01;;;;;;;17.25;6.22;;;13.90;99.90;;;;;;5006602;28;20034;-46
2023/03/29 12:12:52;;;;;;;19.60;5.40;;;14.00;99.90;;;;;;5026701;28;20033;-50
2023/03/29 12:15:23;;;;;;;18.00;6.05;;;14.00;99.90;;;;;;5014012;28;20029;-46
2023/03/29 12:18:15;;;;;;;18.73;5.60;;;14.00;99.90;;;;;;5031860;28;20021;-46
2023/03/29 12:20:41;;;;;;;21.50;6.55;;;14.30;99.90;;;;;;5031814;28;20017;-46
2023/03/29 12:23:13;;;;;;;16.27;5.22;;;14.60;99.90;;;;;;5031813;28;20410;-45
2023/03/29 12:26:16;;;;;;;15.60;5.05;;;14.80;99.90;;;;;;5031735;28;20021;-47
2023/03/29 12:28:51;;;;;;;14.25;4.97;;;14.70;99.90;;;;;;5027757;28;20045;-41
2023/03/29 12:31:37;;;;;;;16.95;4.82;;;14.70;99.90;;;;;;5029187;28;20040;-50
2023/03/29 12:34:17;;;;;;;14.45;4.90;;;14.70;99.90;;;;;;5000959;28;20103;-44
2023/03/29 12:36:46;;;;;;;17.67;4.32;;;14.80;99.90;;;;;;5031811;28;20028;-44
2023/03/29 12:39:18;;;;;;;19.65;5.60;;;14.90;99.90;;;;;;5031762;28;20063;-46
2023/03/29 12:41:47;;;;;;;10.80;3.83;;;15.00;99.90;;;;;;5031519;28;20042;-45
2023/03/29 12:44:16;;;;;;;14.10;4.20;;;15.00;99.90;;;;;;5031681;28;20028;-45
2023/03/29 12:46:42;;;;;;;16.23;3.70;;;15.20;99.90;;;;;;5031205;28;20021;-45
2023/03/29 12:49:31;;;;;;;11.65;3.80;;;15.30;99.90;;;;;;5031215;28;20042;-43
2023/03/29 12:52:00;;;;;;;14.70;4.30;;;15.30;99.90;;;;;;5030940;28;20129;-48
2023/03/29 12:54:31;;;;;;;12.60;3.67;;;15.50;99.90;;;;;;5031726;28;20029;-51
2023/03/29 12:57:18;;;;;;;14.43;3.70;;;15.60;99.90;;;;;;5031481;28;20117;-47
2023/03/29 12:59:49;;;;;;;8.68;3.30;;;15.50;99.90;;;;;;5031372;28;20033;-42
2023/03/29 13:02:16;;;;;;;10.38;3.30;;;15.60;99.90;;;;;;5029901;28;20025;-44